Time;durP1;ratioP1;P1;durP2;ratioP2;P2;SDS_P1;SDS_P2;PMS_P1;PMS_P2;Temp;Humidity;BMP_temperature;BMP_pressure;BME280_temperature;BME280_humidity;BME280_pressure;Samples;Min_cycle;Max_cycle;Signal;HPM_P1;HPM_P2
2022/04/29 00:00:36;;;;;;;;;25.50;21.50;;;;;17.63;42.28;102166.09;5014286;28;45566;-66
2022/04/29 00:03:03;;;;;;;;;20.75;20.75;;;;;17.59;42.07;102170.53;5013812;28;45479;-66
2022/04/29 00:05:29;;;;;;;;;22.25;21.50;;;;;17.58;41.65;102170.50;5013803;28;45325;-65
2022/04/29 00:07:54;;;;;;;;;25.75;21.25;;;;;17.55;42.21;102167.72;5013995;28;45527;-67
2022/04/29 00:10:20;;;;;;;;;26.75;24.75;;;;;17.48;42.31;102166.69;5014243;28;45667;-67
2022/04/29 00:12:47;;;;;;;;;29.00;27.00;;;;;17.44;41.97;102162.09;5013865;28;46029;-65
2022/04/29 00:15:14;;;;;;;;;26.75;25.25;;;;;17.44;42.19;102165.72;5013741;28;45348;-67
2022/04/29 00:17:40;;;;;;;;;29.00;24.25;;;;;17.18;42.34;102119.25;5013502;28;45298;-66
2022/04/29 00:20:07;;;;;;;;;32.00;27.50;;;;;17.38;42.60;102154.78;5013958;28;45467;-65
2022/04/29 00:22:33;;;;;;;;;34.50;26.50;;;;;17.31;42.54;102152.84;5013560;28;45473;-70
2022/04/29 00:24:59;;;;;;;;;33.00;28.25;;;;;17.29;43.00;102149.16;5013612;28;45383;-66
2022/04/29 00:27:25;;;;;;;;;27.25;26.25;;;;;17.08;42.98;102125.34;5013859;28;45399;-66
2022/04/29 00:29:50;;;;;;;;;30.50;27.25;;;;;17.16;43.04;102148.03;5013791;28;45355;-68
2022/04/29 00:32:16;;;;;;;;;26.75;24.75;;;;;17.12;43.28;102136.22;5013538;28;45682;-65
2022/04/29 00:34:41;;;;;;;;;32.00;26.00;;;;;17.11;43.25;102138.91;5013765;28;45530;-64
2022/04/29 00:37:06;;;;;;;;;23.25;22.50;;;;;17.11;43.02;102133.50;5013494;28;45342;-65
2022/04/29 00:39:32;;;;;;;;;28.00;26.50;;;;;17.10;43.05;102137.06;5013965;28;45451;-65
2022/04/29 00:41:58;;;;;;;;;27.00;27.00;;;;;17.13;43.23;102129.03;5012121;28;46134;-65
2022/04/29 00:44:23;;;;;;;;;27.75;27.25;;;;;17.05;43.35;102115.38;5013542;28;45387;-64
2022/04/29 00:46:51;;;;;;;;;37.50;29.00;;;;;16.32;43.60;102002.19;5013569;28;45432;-66
2022/04/29 00:49:17;;;;;;;;;24.50;23.75;;;;;17.06;43.45;102122.59;5013552;28;45326;-65
2022/04/29 00:51:45;;;;;;;;;36.75;28.50;;;;;16.95;43.83;102106.16;5013243;28;46471;-66
2022/04/29 00:54:21;;;;;;;;;33.50;26.00;;;;;17.02;43.30;102117.09;5013126;28;45444;-67
2022/04/29 00:56:49;;;;;;;;;26.75;26.00;;;;;17.05;43.33;102120.78;5013299;28;45372;-69
2022/04/29 00:59:21;;;;;;;;;33.75;29.75;;;;;16.92;43.63;102097.09;5013806;28;45662;-64
2022/04/29 01:01:47;;;;;;;;;27.75;27.25;;;;;16.82;43.48;102086.94;5013483;28;46574;-65
2022/04/29 01:04:19;;;;;;;;;33.25;31.25;;;;;16.95;43.99;102110.66;5013369;28;45582;-67
2022/04/29 01:06:44;;;;;;;;;36.50;27.50;;;;;16.90;43.56;102112.34;5013285;28;45563;-66
2022/04/29 01:09:09;;;;;;;;;31.25;27.00;;;;;16.92;43.49;102110.59;5013163;28;45435;-67
2022/04/29 01:11:35;;;;;;;;;30.25;27.00;;;;;16.90;43.70;102105.16;5011270;28;46653;-68
2022/04/29 01:14:00;;;;;;;;;25.25;24.75;;;;;16.58;43.83;102062.13;5012913;28;45386;-67
2022/04/29 01:16:25;;;;;;;;;31.75;29.00;;;;;16.88;43.91;102106.91;5012959;28;45486;-66
2022/04/29 01:18:53;;;;;;;;;35.50;31.50;;;;;16.89;44.20;102097.91;5013279;28;45290;-66
2022/04/29 01:21:19;;;;;;;;;32.50;30.00;;;;;16.61;44.21;102066.66;5013550;28;45392;-69
2022/04/29 01:23:44;;;;;;;;;37.00;33.00;;;;;16.80;43.93;102105.78;5014927;28;45458;-66
2022/04/29 01:26:15;;;;;;;;;29.50;25.00;;;;;16.71;43.88;102098.41;4998453;28;45405;-65
2022/04/29 01:28:43;;;;;;;;;39.75;30.00;;;;;16.64;43.93;102091.03;5016652;28;45618;-66
2022/04/29 01:31:11;;;;;;;;;32.50;27.50;;;;;16.64;44.46;102085.63;5015924;28;46176;-66
2022/04/29 01:33:40;;;;;;;;;32.75;31.00;;;;;16.47;44.75;102074.47;5015845;28;46166;-66
2022/04/29 01:36:06;;;;;;;;;33.25;29.75;;;;;16.51;44.39;102087.13;5016491;28;45500;-65
2022/04/29 01:38:31;;;;;;;;;35.50;33.25;;;;;16.54;44.56;102089.00;5016359;28;45288;-67
2022/04/29 01:40:56;;;;;;;;;35.50;27.25;;;;;16.54;44.60;102092.59;5016110;28;46109;-64
2022/04/29 01:43:22;;;;;;;;;32.25;29.75;;;;;16.43;44.84;102083.34;5014658;28;45456;-66
2022/04/29 01:45:47;;;;;;;;;31.25;30.00;;;;;16.51;44.69;102092.53;5016177;28;45356;-64
2022/04/29 01:48:12;;;;;;;;;34.25;33.00;;;;;16.50;44.04;102090.72;5016461;28;45327;-63
2022/04/29 01:50:38;;;;;;;;;32.75;28.75;;;;;16.48;44.57;102094.25;5016357;28;46360;-64
2022/04/29 01:53:03;;;;;;;;;32.00;28.75;;;;;16.45;44.61;102094.16;5015907;28;45557;-66
2022/04/29 01:55:28;;;;;;;;;30.50;30.00;;;;;16.43;44.84;102094.13;5015949;28;45614;-65
2022/04/29 01:57:56;;;;;;;;;29.50;28.25;;;;;16.36;44.71;102093.06;5016298;28;45538;-67
2022/04/29 02:00:22;;;;;;;;;32.50;30.25;;;;;16.32;44.96;102091.19;5015764;28;46265;-65
2022/04/29 02:02:47;;;;;;;;;38.00;32.50;;;;;16.21;45.25;102087.31;5015794;28;45517;-64
2022/04/29 02:05:13;;;;;;;;;36.25;30.25;;;;;15.73;45.49;102037.56;5016093;28;45526;-66
2022/04/29 02:07:39;;;;;;;;;32.50;30.25;;;;;16.04;45.43;102100.38;5016105;28;45548;-67
2022/04/29 02:10:05;;;;;;;;;34.75;31.25;;;;;16.09;45.32;102109.50;5015677;28;46562;-66
2022/04/29 02:12:30;;;;;;;;;40.00;31.75;;;;;15.64;45.94;102043.63;5015787;28;45458;-64
2022/04/29 02:14:55;;;;;;;;;32.50;29.75;;;;;15.93;46.11;102108.16;5015667;28;45370;-64
2022/04/29 02:17:21;;;;;;;;;36.00;30.25;;;;;15.92;46.14;102127.00;5015584;28;45606;-66
2022/04/29 02:19:46;;;;;;;;;41.75;32.25;;;;;15.92;45.93;102116.22;5015371;28;45834;-64
2022/04/29 02:22:12;;;;;;;;;32.00;30.00;;;;;15.83;45.71;102103.41;5015347;28;50127;-65
2022/04/29 02:24:37;;;;;;;;;35.50;32.00;;;;;15.90;45.67;102118.88;5015797;28;45459;-67
2022/04/29 02:27:04;;;;;;;;;38.25;29.50;;;;;15.71;46.02;102079.72;5015900;28;45477;-64
2022/04/29 02:29:29;;;;;;;;;35.75;31.50;;;;;15.92;45.76;102105.44;5015282;28;46119;-66
2022/04/29 02:31:59;;;;;;;;;42.75;33.50;;;;;15.83;45.38;102089.94;5015160;28;45280;-65
2022/04/29 02:34:25;;;;;;;;;35.25;31.25;;;;;16.01;45.38;102120.06;5015292;28;45581;-64
2022/04/29 02:36:50;;;;;;;;;38.25;31.50;;;;;15.88;45.59;102098.16;5015412;28;45450;-66
2022/04/29 02:39:16;;;;;;;;;34.00;31.75;;;;;16.01;45.37;102127.25;5015499;28;46152;-66
2022/04/29 02:41:41;;;;;;;;;33.25;30.50;;;;;16.01;45.39;102121.88;5015293;28;45400;-67
2022/04/29 02:44:06;;;;;;;;;35.25;29.75;;;;;16.02;45.51;102123.69;5015188;28;45628;-67
2022/04/29 02:46:33;;;;;;;;;35.00;29.00;;;;;15.94;45.52;102120.78;5015812;28;45549;-67
2022/04/29 02:48:58;;;;;;;;;28.00;25.75;;;;;15.97;45.59;102130.72;5015017;28;46168;-63
2022/04/29 02:51:23;;;;;;;;;35.00;30.00;;;;;15.93;45.51;102118.06;5014875;28;45399;-65
2022/04/29 02:53:51;;;;;;;;;33.75;30.75;;;;;15.95;45.41;102119.91;4997114;28;45327;-66
2022/04/29 02:56:16;;;;;;;;;34.75;30.50;;;;;15.63;45.57;102060.66;5015321;28;45384;-66
2022/04/29 02:58:41;;;;;;;;;32.25;30.00;;;;;15.94;45.26;102103.72;5014839;28;45411;-66
2022/04/29 03:01:07;;;;;;;;;30.50;28.75;;;;;15.90;45.16;102093.72;5014971;28;45536;-66
2022/04/29 03:03:32;;;;;;;;;31.00;25.50;;;;;15.70;45.38;102055.44;5015284;28;45684;-67
2022/04/29 03:05:58;;;;;;;;;33.25;30.50;;;;;16.01;45.47;102116.47;5015196;28;45419;-69
2022/04/29 03:08:23;;;;;;;;;25.00;24.25;;;;;15.86;45.61;102103.50;5014758;28;46126;-66
2022/04/29 03:10:48;;;;;;;;;35.00;30.75;;;;;15.97;45.26;102115.50;5014876;28;45320;-65
2022/04/29 03:13:14;;;;;;;;;43.25;34.00;;;;;15.88;45.57;102115.22;5014803;28;45432;-66
2022/04/29 03:15:39;;;;;;;;;36.00;27.50;;;;;15.48;45.44;102055.75;5015168;28;45396;-66
2022/04/29 03:18:23;;;;;;;;;40.75;29.50;;;;;15.91;45.48;102115.31;5014269;28;45430;-65
2022/04/29 03:20:53;;;;;;;;;35.25;31.75;;;;;15.93;45.42;102110.88;5014861;28;45422;-65
2022/04/29 03:23:19;;;;;;;;;38.75;31.25;;;;;15.93;45.21;102109.97;5014542;28;45431;-66
2022/04/29 03:25:45;;;;;;;;;36.25;33.00;;;;;15.71;45.10;102070.75;5014888;28;45522;-66
2022/04/29 03:28:11;;;;;;;;;34.75;31.75;;;;;15.93;45.56;102102.78;5014566;28;46084;-67
2022/04/29 03:30:36;;;;;;;;;35.50;30.25;;;;;15.90;45.52;102102.69;5014528;28;45327;-66
2022/04/29 03:33:04;;;;;;;;;29.00;26.25;;;;;15.91;45.31;102109.94;5014221;28;45384;-66
2022/04/29 03:35:30;;;;;;;;;34.50;32.00;;;;;15.93;45.31;102092.00;5014794;28;45405;-67
2022/04/29 03:37:56;;;;;;;;;33.75;31.75;;;;;15.98;45.03;102092.13;5014103;28;46115;-65
2022/04/29 03:40:23;;;;;;;;;34.75;30.50;;;;;15.81;45.20;102065.66;5014194;28;45473;-66
2022/04/29 03:42:50;;;;;;;;;34.00;31.25;;;;;16.00;45.01;102088.63;5014328;28;45524;-65
2022/04/29 03:45:15;;;;;;;;;37.00;29.75;;;;;15.98;44.89;102090.34;5014277;28;45512;-67
2022/04/29 03:47:42;;;;;;;;;31.00;29.00;;;;;15.93;44.94;102089.31;5014146;28;45552;-69
2022/04/29 03:50:08;;;;;;;;;36.50;33.00;;;;;15.83;45.26;102074.69;5014130;28;45421;-64
2022/04/29 03:52:33;;;;;;;;;34.00;29.00;;;;;15.97;45.21;102087.59;5014294;28;45531;-63
2022/04/29 03:54:59;;;;;;;;;31.75;27.75;;;;;15.98;45.19;102079.56;5014138;28;45508;-64
2022/04/29 03:57:24;;;;;;;;;33.25;30.50;;;;;15.97;45.05;102071.41;5013873;28;46058;-66
2022/04/29 03:59:49;;;;;;;;;35.00;29.75;;;;;15.97;44.99;102071.41;5014007;28;45396;-65
2022/04/29 04:02:15;;;;;;;;;30.25;28.50;;;;;15.97;45.28;102066.03;5014107;28;45340;-66
2022/04/29 04:04:41;;;;;;;;;39.50;32.50;;;;;15.82;45.16;102050.38;5014395;28;45381;-66
2022/04/29 04:07:06;;;;;;;;;40.50;32.00;;;;;15.78;44.82;102051.19;5013800;28;46128;-65
2022/04/29 04:09:31;;;;;;;;;34.75;30.00;;;;;15.78;45.16;102056.59;5013787;28;45488;-66
2022/04/29 04:11:57;;;;;;;;;41.25;34.50;;;;;15.64;45.29;102038.25;5014272;28;45999;-65
2022/04/29 04:14:23;;;;;;;;;36.50;31.75;;;;;15.43;45.36;102018.81;5014112;28;45379;-66
2022/04/29 04:16:48;;;;;;;;;43.50;32.25;;;;;15.75;45.32;102056.47;5014011;28;45249;-66
2022/04/29 04:19:14;;;;;;;;;39.50;31.75;;;;;15.75;45.25;102073.53;5014438;28;45360;-66
2022/04/29 04:21:39;;;;;;;;;29.75;28.75;;;;;15.70;45.41;102067.13;5014481;28;45360;-66
2022/04/29 04:24:06;;;;;;;;;40.00;32.25;;;;;15.55;45.53;102048.75;5014515;28;45594;-65
2022/04/29 04:26:32;;;;;;;;;35.00;32.25;;;;;14.96;45.72;101960.09;5013921;28;46684;-65
2022/04/29 04:28:57;;;;;;;;;36.50;32.25;;;;;15.58;45.64;102073.09;5013512;28;45422;-67
2022/04/29 04:31:24;;;;;;;;;37.00;31.00;;;;;15.62;45.46;102074.06;5013822;28;45448;-65
2022/04/29 04:33:50;;;;;;;;;32.75;30.50;;;;;15.48;45.61;102050.38;5013756;28;45550;-64
2022/04/29 04:36:15;;;;;;;;;41.25;31.75;;;;;15.55;45.66;102058.63;5013312;28;46869;-65
2022/04/29 04:38:42;;;;;;;;;41.75;33.00;;;;;15.56;45.48;102074.84;5013277;28;45352;-64
2022/04/29 04:41:08;;;;;;;;;36.00;29.50;;;;;15.24;45.89;102042.53;5013405;28;45571;-68
2022/04/29 04:43:33;;;;;;;;;36.00;31.50;;;;;15.09;45.51;102017.88;5013606;28;45502;-66
2022/04/29 04:45:59;;;;;;;;;38.25;32.75;;;;;15.45;45.91;102082.59;5013463;28;46025;-67
2022/04/29 04:48:24;;;;;;;;;32.75;30.00;;;;;15.50;45.63;102079.16;5013279;28;45346;-66
2022/04/29 04:50:49;;;;;;;;;38.50;32.25;;;;;15.54;45.49;102086.44;5013493;28;45348;-66
2022/04/29 04:53:15;;;;;;;;;32.50;30.00;;;;;15.55;45.30;102082.88;5013751;28;45487;-65
2022/04/29 04:55:40;;;;;;;;;43.50;35.50;;;;;15.45;45.55;102076.31;5013554;28;45608;-66
2022/04/29 04:58:06;;;;;;;;;40.25;32.75;;;;;15.52;45.39;102098.94;5016515;28;45515;-64
2022/04/29 05:00:32;;;;;;;;;37.75;30.25;;;;;15.36;45.62;102057.19;5016729;28;45310;-64
2022/04/29 05:02:57;;;;;;;;;36.50;29.50;;;;;15.41;45.82;102094.19;5017001;28;45443;-66
2022/04/29 05:05:23;;;;;;;;;33.50;30.00;;;;;15.45;45.83;102090.69;5016462;28;46303;-66
2022/04/29 05:07:48;;;;;;;;;36.00;29.75;;;;;15.46;45.88;102088.94;5016782;28;45339;-64
2022/04/29 05:10:14;;;;;;;;;43.00;32.00;;;;;15.39;45.70;102076.16;5016905;28;45541;-66
2022/04/29 05:12:44;;;;;;;;;37.75;31.00;;;;;15.50;45.59;102090.81;5017074;28;45400;-66
2022/04/29 05:15:11;;;;;;;;;41.00;32.00;;;;;15.43;45.83;102097.81;5016775;28;46527;-66
2022/04/29 05:17:39;;;;;;;;;40.75;34.75;;;;;15.45;45.80;102097.88;5015885;28;45468;-65
2022/04/29 05:20:05;;;;;;;;;28.50;27.00;;;;;15.47;45.54;102101.50;5016159;28;45584;-63
2022/04/29 05:22:30;;;;;;;;;43.25;32.75;;;;;15.51;45.28;102106.13;5016322;28;45474;-65
2022/04/29 05:24:56;;;;;;;;;35.50;31.25;;;;;15.46;45.58;102102.41;5015873;28;45333;-64
2022/04/29 05:27:21;;;;;;;;;40.50;30.50;;;;;15.36;45.96;102085.06;5016108;28;45453;-67
2022/04/29 05:29:47;;;;;;;;;38.75;32.25;;;;;15.01;46.16;102032.91;5016179;28;45411;-65
2022/04/29 05:32:12;;;;;;;;;49.00;38.75;;;;;15.10;46.00;102052.00;5016221;28;45265;-66
2022/04/29 05:34:38;;;;;;;;;44.75;33.00;;;;;14.98;45.84;102030.13;5015403;28;46341;-66
2022/04/29 05:37:03;;;;;;;;;40.25;30.75;;;;;15.39;45.73;102109.41;5015633;28;45376;-65
2022/04/29 05:42:17;;;;;;;;;34.50;31.75;;;;;15.25;45.64;102100.91;5016255;28;45387;-67
2022/04/29 05:44:44;;;;;;;;;40.25;32.75;;;;;15.19;46.03;102087.25;5009483;28;45446;-65
2022/04/29 05:47:10;;;;;;;;;45.00;36.25;;;;;15.25;45.75;102097.31;5015563;28;45584;-65
2022/04/29 05:49:36;;;;;;;;;41.00;29.50;;;;;15.35;45.91;102106.56;5015768;28;45394;-65
2022/04/29 05:52:03;;;;;;;;;42.75;34.75;;;;;15.47;45.64;102113.19;5016087;28;45605;-65
2022/04/29 05:54:29;;;;;;;;;44.75;36.00;;;;;15.47;45.40;102115.88;5015184;28;47352;-65
2022/04/29 05:56:54;;;;;;;;;40.25;30.50;;;;;15.28;45.41;102071.38;5015417;28;45363;-65
2022/04/29 05:59:19;;;;;;;;;37.50;31.50;;;;;15.18;45.54;102060.28;5015925;28;46029;-65
2022/04/29 06:01:44;;;;;;;;;38.00;30.00;;;;;15.51;45.29;102124.97;5015774;28;45234;-65
2022/04/29 06:04:10;;;;;;;;;30.50;29.25;;;;;15.40;45.51;102110.28;5015149;28;52885;-69
2022/04/29 06:06:35;;;;;;;;;32.25;29.50;;;;;15.42;45.34;102100.47;5015317;28;45469;-65
2022/04/29 06:09:01;;;;;;;;;32.75;30.00;;;;;15.60;45.28;102127.91;5014171;28;45335;-62
2022/04/29 06:11:26;;;;;;;;;34.25;30.75;;;;;15.65;45.11;102133.44;5015806;28;45569;-65
2022/04/29 06:13:53;;;;;;;;;38.25;31.25;;;;;15.64;45.04;102129.84;5015188;28;45993;-65
2022/04/29 06:16:18;;;;;;;;;41.75;33.00;;;;;15.73;45.25;102136.34;5016017;28;45584;-65
2022/04/29 06:18:44;;;;;;;;;36.75;33.00;;;;;15.66;45.24;102143.34;5015307;28;45789;-68
2022/04/29 06:21:09;;;;;;;;;32.75;30.00;;;;;15.70;44.97;102138.97;5015610;28;45386;-63
2022/04/29 06:23:35;;;;;;;;;44.75;36.25;;;;;15.73;45.15;102142.66;4996859;28;47052;-70
2022/04/29 06:26:00;;;;;;;;;47.25;35.75;;;;;15.62;45.07;102125.25;5014860;28;45573;-70
2022/04/29 06:28:25;;;;;;;;;29.25;29.25;;;;;15.82;45.17;102147.41;5015003;28;45377;-66
2022/04/29 06:30:51;;;;;;;;;32.00;29.25;;;;;15.85;44.98;102142.09;5015502;28;45454;-65
2022/04/29 06:33:16;;;;;;;;;39.25;33.25;;;;;15.87;44.82;102140.34;5014718;28;45573;-66
2022/04/29 06:35:42;;;;;;;;;38.25;32.25;;;;;15.42;45.34;102077.13;5015206;28;45463;-66
2022/04/29 06:38:15;;;;;;;;;36.75;33.00;;;;;15.82;44.99;102151.03;4993963;28;45561;-67
2022/04/29 06:40:40;;;;;;;;;41.25;34.25;;;;;15.85;45.26;102155.56;5015048;28;45536;-66
2022/04/29 06:43:05;;;;;;;;;42.00;35.50;;;;;15.64;45.17;102127.16;5014528;28;45392;-65
2022/04/29 06:45:31;;;;;;;;;39.25;30.25;;;;;15.72;45.09;102130.03;4993696;28;47345;-67
2022/04/29 06:47:56;;;;;;;;;39.00;34.00;;;;;15.69;44.75;102121.91;5014940;28;45461;-66
2022/04/29 06:50:21;;;;;;;;;33.50;30.50;;;;;15.83;45.04;102138.47;5015383;28;45772;-66
2022/04/29 06:52:47;;;;;;;;;61.50;46.50;;;;;15.96;45.01;102146.00;5014468;28;46531;-71
2022/04/29 06:55:12;;;;;;;;;42.25;33.75;;;;;15.46;44.87;102062.00;5014748;28;45411;-67
2022/04/29 06:57:37;;;;;;;;;41.25;34.25;;;;;15.87;45.14;102142.13;5014332;28;45412;-66
2022/04/29 07:00:05;;;;;;;;;45.75;33.00;;;;;15.82;45.27;102151.03;5014834;28;45395;-66
2022/04/29 07:02:32;;;;;;;;;45.00;34.50;;;;;15.87;45.53;102153.81;5014428;28;45431;-66
2022/04/29 07:04:57;;;;;;;;;38.00;32.00;;;;;15.89;44.93;102137.69;5014179;28;45362;-65
2022/04/29 07:07:24;;;;;;;;;36.25;30.50;;;;;15.92;44.95;102144.09;5014744;28;45376;-66
2022/04/29 07:09:50;;;;;;;;;44.00;34.25;;;;;15.88;45.31;102131.41;5014959;28;45709;-67
2022/04/29 07:12:15;;;;;;;;;35.25;30.75;;;;;15.96;45.35;102140.59;5014378;28;46007;-69
2022/04/29 07:14:41;;;;;;;;;48.50;36.25;;;;;15.88;44.77;102146.66;5013954;28;45379;-67
2022/04/29 07:17:08;;;;;;;;;43.00;34.25;;;;;15.96;45.43;102161.28;5013894;28;45351;-66
2022/04/29 07:19:34;;;;;;;;;42.75;31.50;;;;;15.46;45.61;102086.25;5013862;28;45460;-66
2022/04/29 07:21:59;;;;;;;;;43.25;32.75;;;;;15.79;45.62;102156.31;5014270;28;47260;-66
2022/04/29 07:24:25;;;;;;;;;37.00;31.75;;;;;15.86;45.48;102153.81;5014217;28;45366;-65
2022/04/29 07:26:50;;;;;;;;;41.25;35.00;;;;;15.84;45.79;102135.81;5014480;28;45312;-66
2022/04/29 07:29:15;;;;;;;;;45.50;35.25;;;;;15.94;46.19;102166.63;5014541;28;45707;-67
2022/04/29 07:31:41;;;;;;;;;43.00;34.50;;;;;15.85;45.59;102139.41;5013608;28;52130;-65
2022/04/29 07:34:06;;;;;;;;;40.75;34.25;;;;;15.96;45.89;102172.94;5013833;28;45379;-69
2022/04/29 07:41:49;;;;;;;;;41.50;33.25;;;;;15.90;45.42;102174.56;5013780;28;45713;-66
2022/04/29 07:44:16;;;;;;;;;41.75;32.75;;;;;15.66;45.73;102122.69;5013973;28;45582;-65
2022/04/29 07:46:45;;;;;;;;;45.25;34.25;;;;;15.84;45.86;102130.41;5013497;28;45482;-67
2022/04/29 07:49:11;;;;;;;;;41.50;34.50;;;;;16.06;45.89;102166.03;5013741;28;45535;-67
2022/04/29 07:51:37;;;;;;;;;43.75;33.75;;;;;16.11;46.31;102164.34;5014155;28;45404;-66
2022/04/29 07:54:06;;;;;;;;;44.75;37.00;;;;;16.00;46.27;102164.09;5014295;28;45347;-67
2022/04/29 07:56:32;;;;;;;;;49.25;38.50;;;;;16.09;46.51;102184.09;5014504;28;45541;-67
2022/04/29 07:58:58;;;;;;;;;45.25;38.75;;;;;16.07;46.61;102167.88;5014591;28;45665;-66
2022/04/29 08:01:26;;;;;;;;;53.50;43.00;;;;;16.13;46.83;102167.09;5014046;28;45519;-66
2022/04/29 08:03:55;;;;;;;;;44.50;34.75;;;;;16.26;46.20;102171.03;5014193;28;45486;-66
2022/04/29 08:06:21;;;;;;;;;48.00;39.25;;;;;16.23;45.97;102158.38;4995934;28;45519;-65
2022/04/29 08:08:47;;;;;;;;;47.75;39.00;;;;;16.23;46.38;102152.06;5014042;28;45424;-67
2022/04/29 08:11:14;;;;;;;;;46.50;38.75;;;;;16.33;46.52;102167.59;5013723;28;46191;-66
2022/04/29 08:13:40;;;;;;;;;54.25;42.00;;;;;16.34;46.52;102155.97;5013540;28;45717;-65
2022/04/29 08:16:07;;;;;;;;;54.50;42.25;;;;;16.43;46.12;102163.34;5013601;28;45537;-66
2022/04/29 08:18:33;;;;;;;;;49.25;40.25;;;;;16.37;46.29;102147.94;5013218;28;45619;-67
2022/04/29 08:20:58;;;;;;;;;48.75;40.50;;;;;16.64;45.83;102171.97;5012840;28;45540;-63
2022/04/29 08:23:23;;;;;;;;;57.75;44.75;;;;;16.74;45.36;102181.22;4995189;28;45484;-65
2022/04/29 08:25:49;;;;;;;;;51.50;38.00;;;;;16.63;45.39;102151.28;5013487;28;45780;-66
2022/04/29 08:28:15;;;;;;;;;52.25;42.25;;;;;16.81;45.48;102174.16;5007010;28;45343;-66
2022/04/29 08:30:40;;;;;;;;;54.75;41.00;;;;;16.89;45.35;102180.69;5014422;28;45733;-65
2022/04/29 08:33:12;;;;;;;;;49.75;41.00;;;;;16.95;45.04;102172.75;5016676;28;45440;-66
2022/04/29 08:35:37;;;;;;;;;46.00;37.75;;;;;17.03;45.20;102171.13;5016605;28;45576;-66
2022/04/29 08:38:02;;;;;;;;;54.00;38.75;;;;;17.09;45.00;102171.28;5016787;28;45289;-67
2022/04/29 08:40:28;;;;;;;;;48.50;40.75;;;;;17.20;44.50;102184.09;5016618;28;46078;-65
2022/04/29 08:42:57;;;;;;;;;49.50;39.50;;;;;17.27;44.37;102169.84;5016774;28;45427;-66
2022/04/29 08:45:22;;;;;;;;;56.00;45.25;;;;;17.33;44.05;102175.38;5017368;28;45650;-66
2022/04/29 08:47:47;;;;;;;;;49.25;40.50;;;;;17.37;43.95;102168.25;5017060;28;45320;-66
2022/04/29 08:50:15;;;;;;;;;53.25;39.50;;;;;17.31;44.09;102152.84;5016447;28;46309;-67
2022/04/29 08:52:41;;;;;;;;;51.25;40.25;;;;;17.44;43.95;102153.97;5016512;28;45834;-66
2022/04/29 09:00:41;;;;;;;;;50.00;39.25;;;;;18.06;43.10;102158.81;5016276;28;45533;-68
2022/04/29 09:03:11;;;;;;;;;43.50;37.25;;;;;18.10;42.58;102136.38;5016040;28;45348;-67
2022/04/29 09:05:36;;;;;;;;;43.50;35.50;;;;;18.43;42.36;102167.59;5016146;28;45498;-65
2022/04/29 09:08:03;;;;;;;;;49.50;38.75;;;;;18.51;42.00;102171.34;5016412;28;45328;-67
2022/04/29 09:10:34;;;;;;;;;50.50;39.75;;;;;18.57;41.91;102171.41;5016227;28;46101;-66
2022/04/29 09:13:11;;;;;;;;;53.50;39.50;;;;;18.50;41.77;102153.28;5016300;28;45578;-65
2022/04/29 09:15:36;;;;;;;;;51.00;41.25;;;;;18.69;41.50;102167.09;5016471;28;45414;-65
2022/04/29 09:18:02;;;;;;;;;50.25;38.00;;;;;18.86;41.36;102171.00;5016033;28;45580;-65
2022/04/29 09:20:28;;;;;;;;;48.00;38.75;;;;;18.88;41.25;102180.06;5016251;28;45370;-66
2022/04/29 09:22:53;;;;;;;;;52.25;39.25;;;;;18.88;41.17;102173.75;5015989;28;45324;-66
2022/04/29 09:25:18;;;;;;;;;45.75;39.50;;;;;18.80;41.23;102160.03;5016467;28;45464;-66
2022/04/29 09:28:01;;;;;;;;;42.00;34.50;;;;;18.92;41.22;102162.06;5016271;28;45605;-66
2022/04/29 09:30:37;;;;;;;;;44.50;35.50;;;;;18.88;41.05;102157.50;5016154;28;46186;-66
2022/04/29 09:33:04;;;;;;;;;50.25;38.75;;;;;18.88;40.99;102139.44;5015543;28;45538;-66
2022/04/29 09:35:42;;;;;;;;;51.75;42.25;;;;;19.13;40.78;102156.94;5015812;28;45391;-65
2022/04/29 09:40:55;;;;;;;;;41.25;35.75;;;;;19.35;40.49;102151.78;5015784;28;45431;-65
2022/04/29 09:43:40;;;;;;;;;47.00;39.75;;;;;19.00;40.20;102079.09;5014804;28;45530;-65
2022/04/29 09:46:11;;;;;;;;;74.00;58.75;;;;;19.49;39.77;102152.88;5015502;28;45361;-66
2022/04/29 09:49:08;;;;;;;;;40.25;35.00;;;;;19.59;39.63;102153.00;5015784;28;45561;-66
2022/04/29 09:51:37;;;;;;;;;51.50;39.00;;;;;19.55;39.36;102148.41;5011409;28;45286;-66
2022/04/29 09:54:27;;;;;;;;;40.75;35.75;;;;;19.69;39.78;102150.41;5016296;28;45638;-66
2022/04/29 09:57:27;;;;;;;;;47.00;35.00;;;;;19.74;39.57;102133.28;5016686;28;45622;-65
2022/04/29 09:59:55;;;;;;;;;43.00;37.00;;;;;19.96;39.12;102139.84;5012421;28;45457;-66
2022/04/29 10:02:23;;;;;;;;;50.00;38.50;;;;;20.01;39.05;102136.31;5015624;28;46265;-66
2022/04/29 10:04:50;;;;;;;;;43.75;34.75;;;;;19.92;38.45;102111.78;4996805;28;45454;-66
2022/04/29 10:07:20;;;;;;;;;44.00;36.50;;;;;20.03;38.28;102115.53;5015174;28;45573;-66
2022/04/29 10:09:48;;;;;;;;;38.75;34.50;;;;;20.02;38.29;102110.09;5015300;28;45521;-66
2022/04/29 10:12:15;;;;;;;;;46.00;37.50;;;;;20.23;38.51;102131.06;5015196;28;45676;-67
2022/04/29 10:14:42;;;;;;;;;44.00;35.50;;;;;20.31;38.53;102125.69;5014969;28;45393;-68
2022/04/29 10:22:46;;;;;;;;;41.00;34.50;;;;;20.46;37.58;102138.47;5014844;28;45563;-70
2022/04/29 10:25:12;;;;;;;;;41.25;33.25;;;;;20.61;37.48;102136.78;5014876;28;45337;-67
2022/04/29 10:27:42;;;;;;;;;44.25;36.50;;;;;20.70;37.20;102140.50;5014876;28;45268;-66
2022/04/29 10:30:09;;;;;;;;;60.50;47.00;;;;;20.65;37.24;102121.47;5015071;28;45459;-68
2022/04/29 10:33:05;;;;;;;;;51.00;39.75;;;;;20.83;37.26;102136.97;5014396;28;46333;-64
2022/04/29 10:35:39;;;;;;;;;45.50;36.00;;;;;20.48;36.96;102064.31;5014373;28;45352;-66
2022/04/29 10:38:14;;;;;;;;;49.25;38.00;;;;;20.92;36.63;102142.47;5014428;28;45913;-67
2022/04/29 10:40:40;;;;;;;;;43.25;34.75;;;;;20.92;36.79;102134.31;5008296;28;45360;-67
2022/04/29 10:43:07;;;;;;;;;42.25;34.25;;;;;20.88;36.86;102131.56;5007615;28;46360;-68
2022/04/29 10:45:34;;;;;;;;;43.75;35.00;;;;;20.98;36.99;102138.88;5014578;28;45442;-69
2022/04/29 10:48:38;;;;;;;;;40.75;34.50;;;;;21.06;36.71;102136.19;5014394;28;45475;-66
2022/04/29 10:51:17;;;;;;;;;47.75;37.75;;;;;21.02;36.65;102127.13;5014403;28;45602;-67
2022/04/29 10:54:04;;;;;;;;;38.25;32.50;;;;;21.10;36.77;102129.84;5014514;28;45703;-67
2022/04/29 10:56:32;;;;;;;;;43.25;36.00;;;;;21.23;36.32;102120.84;5013939;28;45456;-66
2022/04/29 10:59:03;;;;;;;;;44.00;35.50;;;;;21.29;36.36;102120.88;5014608;28;45489;-66
2022/04/29 11:01:31;;;;;;;;;43.75;34.25;;;;;21.39;36.75;102124.56;5014486;28;45999;-66
2022/04/29 11:03:56;;;;;;;;;40.00;33.75;;;;;21.47;35.72;102121.88;5014438;28;45441;-66
2022/04/29 11:06:35;;;;;;;;;43.50;35.75;;;;;21.47;35.80;102120.09;5014373;28;45489;-67
2022/04/29 11:09:01;;;;;;;;;47.75;39.75;;;;;21.35;36.15;102106.44;5014558;28;45486;-67
2022/04/29 11:11:42;;;;;;;;;48.50;38.25;;;;;21.44;35.67;102120.03;5014550;28;45502;-67
2022/04/29 11:14:08;;;;;;;;;44.50;34.00;;;;;21.45;35.71;102127.31;5014340;28;45453;-66
2022/04/29 11:16:52;;;;;;;;;36.00;33.50;;;;;21.47;35.74;102120.09;5014368;28;45384;-66
2022/04/29 11:19:27;;;;;;;;;50.00;40.50;;;;;21.49;35.39;102118.28;5013726;28;45581;-65
2022/04/29 11:24:52;;;;;;;;;47.50;34.50;;;;;21.71;35.02;102105.66;5013972;28;45432;-68
2022/04/29 11:27:28;;;;;;;;;44.00;34.25;;;;;21.78;34.94;102117.44;5014086;28;45333;-67
2022/04/29 11:29:57;;;;;;;;;41.25;33.75;;;;;21.60;34.74;102087.50;5014073;28;45363;-67
2022/04/29 11:32:25;;;;;;;;;43.00;31.75;;;;;21.64;34.96;102094.75;5014465;28;45574;-66
2022/04/29 11:35:00;;;;;;;;;37.25;32.75;;;;;21.72;35.18;102117.44;5013741;28;46263;-66